sensor_id;sensor_type;location;lat;lon;timestamp;temperature;humidity
75022;SHT31;63583;49.976;20.182;2024-03-02T00:00:04;7.15;92.10
75022;SHT31;63583;49.976;20.182;2024-03-02T00:02:57;7.22;92.06
75022;SHT31;63583;49.976;20.182;2024-03-02T00:05:22;7.48;90.92
75022;SHT31;63583;49.976;20.182;2024-03-02T00:07:56;7.85;89.64
75022;SHT31;63583;49.976;20.182;2024-03-02T00:10:30;7.98;89.10
75022;SHT31;63583;49.976;20.182;2024-03-02T00:13:01;7.95;88.82
75022;SHT31;63583;49.976;20.182;2024-03-02T00:15:46;7.73;89.16
75022;SHT31;63583;49.976;20.182;2024-03-02T00:18:14;7.63;89.65
75022;SHT31;63583;49.976;20.182;2024-03-02T00:20:41;7.46;89.98
75022;SHT31;63583;49.976;20.182;2024-03-02T00:23:10;7.38;90.49
75022;SHT31;63583;49.976;20.182;2024-03-02T00:25:47;7.33;90.59
75022;SHT31;63583;49.976;20.182;2024-03-02T00:33:19;7.37;90.47
75022;SHT31;63583;49.976;20.182;2024-03-02T00:35:47;7.37;90.44
75022;SHT31;63583;49.976;20.182;2024-03-02T00:38:14;7.40;90.43
75022;SHT31;63583;49.976;20.182;2024-03-02T00:40:42;7.78;88.89
75022;SHT31;63583;49.976;20.182;2024-03-02T00:46:02;7.89;88.13
75022;SHT31;63583;49.976;20.182;2024-03-02T00:48:29;7.82;88.25
75022;SHT31;63583;49.976;20.182;2024-03-02T00:50:56;7.70;88.74
75022;SHT31;63583;49.976;20.182;2024-03-02T00:53:26;7.92;87.76
75022;SHT31;63583;49.976;20.182;2024-03-02T00:55:52;8.09;87.18
75022;SHT31;63583;49.976;20.182;2024-03-02T00:58:18;8.07;87.24
75022;SHT31;63583;49.976;20.182;2024-03-02T01:00:44;8.09;87.07
75022;SHT31;63583;49.976;20.182;2024-03-02T01:03:09;7.92;87.71
75022;SHT31;63583;49.976;20.182;2024-03-02T01:05:36;7.74;88.20
75022;SHT31;63583;49.976;20.182;2024-03-02T01:08:02;7.64;88.58
75022;SHT31;63583;49.976;20.182;2024-03-02T01:10:28;7.53;88.95
75022;SHT31;63583;49.976;20.182;2024-03-02T01:12:54;7.48;88.94
75022;SHT31;63583;49.976;20.182;2024-03-02T01:15:20;7.44;89.18
75022;SHT31;63583;49.976;20.182;2024-03-02T01:17:46;7.38;89.37
75022;SHT31;63583;49.976;20.182;2024-03-02T01:20:12;7.46;89.28
75022;SHT31;63583;49.976;20.182;2024-03-02T01:22:38;7.29;89.81
75022;SHT31;63583;49.976;20.182;2024-03-02T01:25:04;7.03;90.54
75022;SHT31;63583;49.976;20.182;2024-03-02T01:27:30;6.99;90.93
75022;SHT31;63583;49.976;20.182;2024-03-02T01:29:55;7.09;90.56
75022;SHT31;63583;49.976;20.182;2024-03-02T01:32:21;7.05;90.91
75022;SHT31;63583;49.976;20.182;2024-03-02T01:34:47;6.99;91.13
75022;SHT31;63583;49.976;20.182;2024-03-02T01:37:13;6.81;91.14
75022;SHT31;63583;49.976;20.182;2024-03-02T01:39:39;6.41;91.99
75022;SHT31;63583;49.976;20.182;2024-03-02T01:42:05;6.20;93.73
75022;SHT31;63583;49.976;20.182;2024-03-02T01:44:30;6.65;92.66
75022;SHT31;63583;49.976;20.182;2024-03-02T01:46:56;6.71;92.44
75022;SHT31;63583;49.976;20.182;2024-03-02T01:49:22;6.64;92.51
75022;SHT31;63583;49.976;20.182;2024-03-02T01:51:48;6.34;93.27
75022;SHT31;63583;49.976;20.182;2024-03-02T01:54:14;6.24;93.76
75022;SHT31;63583;49.976;20.182;2024-03-02T01:56:40;6.13;94.24
75022;SHT31;63583;49.976;20.182;2024-03-02T01:59:06;6.51;93.69
75022;SHT31;63583;49.976;20.182;2024-03-02T02:01:32;6.70;93.11
75022;SHT31;63583;49.976;20.182;2024-03-02T02:03:58;6.89;92.32
75022;SHT31;63583;49.976;20.182;2024-03-02T02:06:24;6.99;92.08
75022;SHT31;63583;49.976;20.182;2024-03-02T02:08:49;7.16;91.21
75022;SHT31;63583;49.976;20.182;2024-03-02T02:11:16;7.19;90.95
75022;SHT31;63583;49.976;20.182;2024-03-02T02:13:42;7.06;91.45
75022;SHT31;63583;49.976;20.182;2024-03-02T02:16:08;6.92;91.78
75022;SHT31;63583;49.976;20.182;2024-03-02T02:18:34;6.84;92.07
75022;SHT31;63583;49.976;20.182;2024-03-02T02:21:02;6.75;92.34
75022;SHT31;63583;49.976;20.182;2024-03-02T02:23:28;6.72;92.48
75022;SHT31;63583;49.976;20.182;2024-03-02T02:25:54;6.64;92.55
75022;SHT31;63583;49.976;20.182;2024-03-02T02:28:20;6.78;92.26
75022;SHT31;63583;49.976;20.182;2024-03-02T02:30:46;6.87;91.90
75022;SHT31;63583;49.976;20.182;2024-03-02T02:33:11;6.84;92.10
75022;SHT31;63583;49.976;20.182;2024-03-02T02:35:37;6.88;91.84
75022;SHT31;63583;49.976;20.182;2024-03-02T02:38:03;6.70;92.46
75022;SHT31;63583;49.976;20.182;2024-03-02T02:40:29;6.63;92.97
75022;SHT31;63583;49.976;20.182;2024-03-02T02:42:57;6.58;93.23
75022;SHT31;63583;49.976;20.182;2024-03-02T02:45:23;6.52;93.53
75022;SHT31;63583;49.976;20.182;2024-03-02T02:47:49;6.47;93.64
75022;SHT31;63583;49.976;20.182;2024-03-02T02:50:14;6.42;93.91
75022;SHT31;63583;49.976;20.182;2024-03-02T02:52:41;6.37;94.13
75022;SHT31;63583;49.976;20.182;2024-03-02T02:55:09;6.40;94.34
75022;SHT31;63583;49.976;20.182;2024-03-02T02:57:36;6.47;93.99
75022;SHT31;63583;49.976;20.182;2024-03-02T03:00:08;6.54;93.71
75022;SHT31;63583;49.976;20.182;2024-03-02T03:02:42;6.70;93.09
75022;SHT31;63583;49.976;20.182;2024-03-02T03:05:09;6.70;92.80
75022;SHT31;63583;49.976;20.182;2024-03-02T03:07:35;6.55;92.81
75022;SHT31;63583;49.976;20.182;2024-03-02T03:10:03;6.58;92.87
75022;SHT31;63583;49.976;20.182;2024-03-02T03:12:30;6.48;92.85
75022;SHT31;63583;49.976;20.182;2024-03-02T03:14:56;6.41;92.93
75022;SHT31;63583;49.976;20.182;2024-03-02T03:17:23;6.40;93.16
75022;SHT31;63583;49.976;20.182;2024-03-02T03:19:49;6.38;92.95
75022;SHT31;63583;49.976;20.182;2024-03-02T03:22:16;6.33;92.75
75022;SHT31;63583;49.976;20.182;2024-03-02T03:24:41;6.24;92.72
75022;SHT31;63583;49.976;20.182;2024-03-02T03:27:07;6.12;93.11
75022;SHT31;63583;49.976;20.182;2024-03-02T03:29:33;5.93;93.52
75022;SHT31;63583;49.976;20.182;2024-03-02T03:31:59;5.85;93.89
75022;SHT31;63583;49.976;20.182;2024-03-02T03:34:24;5.82;94.01
75022;SHT31;63583;49.976;20.182;2024-03-02T03:36:50;5.69;94.15
75022;SHT31;63583;49.976;20.182;2024-03-02T03:39:16;5.62;94.50
75022;SHT31;63583;49.976;20.182;2024-03-02T03:41:43;5.43;94.80
75022;SHT31;63583;49.976;20.182;2024-03-02T03:44:08;5.43;95.45
75022;SHT31;63583;49.976;20.182;2024-03-02T03:46:35;5.47;95.17
75022;SHT31;63583;49.976;20.182;2024-03-02T03:49:00;5.20;95.09
75022;SHT31;63583;49.976;20.182;2024-03-02T03:51:26;4.97;96.39
75022;SHT31;63583;49.976;20.182;2024-03-02T03:53:52;4.72;97.38
75022;SHT31;63583;49.976;20.182;2024-03-02T03:56:18;4.68;97.99
75022;SHT31;63583;49.976;20.182;2024-03-02T03:58:43;4.59;98.00
75022;SHT31;63583;49.976;20.182;2024-03-02T04:01:09;4.68;98.23
75022;SHT31;63583;49.976;20.182;2024-03-02T04:03:35;4.67;98.03
75022;SHT31;63583;49.976;20.182;2024-03-02T04:06:01;4.54;98.22
75022;SHT31;63583;49.976;20.182;2024-03-02T04:08:26;4.64;97.94
75022;SHT31;63583;49.976;20.182;2024-03-02T04:10:52;4.59;98.13
75022;SHT31;63583;49.976;20.182;2024-03-02T04:13:18;4.68;98.14
75022;SHT31;63583;49.976;20.182;2024-03-02T04:15:44;4.69;98.00
75022;SHT31;63583;49.976;20.182;2024-03-02T04:18:10;4.58;98.28
75022;SHT31;63583;49.976;20.182;2024-03-02T04:20:35;4.68;98.28
75022;SHT31;63583;49.976;20.182;2024-03-02T04:23:01;4.69;98.23
75022;SHT31;63583;49.976;20.182;2024-03-02T04:25:27;4.71;98.20
75022;SHT31;63583;49.976;20.182;2024-03-02T04:27:52;4.80;98.19
75022;SHT31;63583;49.976;20.182;2024-03-02T04:30:18;4.87;98.14
75022;SHT31;63583;49.976;20.182;2024-03-02T04:32:44;4.80;98.34
75022;SHT31;63583;49.976;20.182;2024-03-02T04:35:12;4.89;98.48
75022;SHT31;63583;49.976;20.182;2024-03-02T04:37:38;4.89;98.64
75022;SHT31;63583;49.976;20.182;2024-03-02T04:40:05;4.99;98.69
75022;SHT31;63583;49.976;20.182;2024-03-02T04:42:34;5.06;98.49
75022;SHT31;63583;49.976;20.182;2024-03-02T04:45:00;5.05;98.43
75022;SHT31;63583;49.976;20.182;2024-03-02T04:47:25;5.10;98.44
75022;SHT31;63583;49.976;20.182;2024-03-02T04:49:51;5.03;98.30
75022;SHT31;63583;49.976;20.182;2024-03-02T04:52:17;5.01;98.36
75022;SHT31;63583;49.976;20.182;2024-03-02T04:54:43;4.76;98.30
75022;SHT31;63583;49.976;20.182;2024-03-02T04:57:28;4.89;98.67
75022;SHT31;63583;49.976;20.182;2024-03-02T04:59:53;4.89;98.62
75022;SHT31;63583;49.976;20.182;2024-03-02T05:02:19;4.87;98.67
75022;SHT31;63583;49.976;20.182;2024-03-02T05:04:45;4.99;98.67
75022;SHT31;63583;49.976;20.182;2024-03-02T05:07:11;4.95;98.50
75022;SHT31;63583;49.976;20.182;2024-03-02T05:09:37;4.96;98.67
75022;SHT31;63583;49.976;20.182;2024-03-02T05:12:02;4.85;98.54
75022;SHT31;63583;49.976;20.182;2024-03-02T05:14:31;4.87;98.87
75022;SHT31;63583;49.976;20.182;2024-03-02T05:16:56;4.89;98.93
75022;SHT31;63583;49.976;20.182;2024-03-02T05:19:22;4.93;98.93
75022;SHT31;63583;49.976;20.182;2024-03-02T05:21:48;4.92;98.97
75022;SHT31;63583;49.976;20.182;2024-03-02T05:24:15;4.96;98.95
75022;SHT31;63583;49.976;20.182;2024-03-02T05:26:41;4.90;99.16
75022;SHT31;63583;49.976;20.182;2024-03-02T05:29:07;4.90;99.43
75022;SHT31;63583;49.976;20.182;2024-03-02T05:31:32;4.95;99.75
75022;SHT31;63583;49.976;20.182;2024-03-02T05:33:58;4.99;99.74
75022;SHT31;63583;49.976;20.182;2024-03-02T05:36:24;5.01;99.76
75022;SHT31;63583;49.976;20.182;2024-03-02T05:38:50;5.07;99.80
75022;SHT31;63583;49.976;20.182;2024-03-02T05:41:16;5.06;99.73
75022;SHT31;63583;49.976;20.182;2024-03-02T05:43:42;5.09;99.76
75022;SHT31;63583;49.976;20.182;2024-03-02T05:46:07;5.12;99.76
75022;SHT31;63583;49.976;20.182;2024-03-02T05:48:33;5.09;99.76
75022;SHT31;63583;49.976;20.182;2024-03-02T05:50:59;5.07;99.77
75022;SHT31;63583;49.976;20.182;2024-03-02T05:53:25;5.06;99.99
75022;SHT31;63583;49.976;20.182;2024-03-02T05:55:51;5.13;99.99
75022;SHT31;63583;49.976;20.182;2024-03-02T05:58:24;5.17;99.78
75022;SHT31;63583;49.976;20.182;2024-03-02T06:00:49;5.22;99.31
75022;SHT31;63583;49.976;20.182;2024-03-02T06:03:15;5.26;99.17
75022;SHT31;63583;49.976;20.182;2024-03-02T06:05:41;5.27;99.25
75022;SHT31;63583;49.976;20.182;2024-03-02T06:08:07;5.27;99.31
75022;SHT31;63583;49.976;20.182;2024-03-02T06:10:32;5.33;99.28
75022;SHT31;63583;49.976;20.182;2024-03-02T06:12:58;5.33;99.21
75022;SHT31;63583;49.976;20.182;2024-03-02T06:15:24;5.30;99.17
75022;SHT31;63583;49.976;20.182;2024-03-02T06:17:50;5.35;99.20
75022;SHT31;63583;49.976;20.182;2024-03-02T06:20:16;5.41;98.95
75022;SHT31;63583;49.976;20.182;2024-03-02T06:22:42;5.34;98.81
75022;SHT31;63583;49.976;20.182;2024-03-02T06:25:08;5.47;98.99
75022;SHT31;63583;49.976;20.182;2024-03-02T06:27:34;5.54;98.47
75022;SHT31;63583;49.976;20.182;2024-03-02T06:29:59;5.61;98.22
75022;SHT31;63583;49.976;20.182;2024-03-02T06:32:25;5.61;97.89
75022;SHT31;63583;49.976;20.182;2024-03-02T06:34:51;5.72;97.48
75022;SHT31;63583;49.976;20.182;2024-03-02T06:37:17;5.65;97.25
75022;SHT31;63583;49.976;20.182;2024-03-02T06:39:43;5.56;97.54
75022;SHT31;63583;49.976;20.182;2024-03-02T06:42:09;5.48;98.38
75022;SHT31;63583;49.976;20.182;2024-03-02T06:44:35;5.69;98.34
75022;SHT31;63583;49.976;20.182;2024-03-02T06:47:01;5.81;97.68
75022;SHT31;63583;49.976;20.182;2024-03-02T06:49:26;5.79;97.47
75022;SHT31;63583;49.976;20.182;2024-03-02T06:51:52;5.65;97.79
75022;SHT31;63583;49.976;20.182;2024-03-02T06:54:18;5.66;98.33
75022;SHT31;63583;49.976;20.182;2024-03-02T06:56:44;5.72;98.15
75022;SHT31;63583;49.976;20.182;2024-03-02T06:59:09;5.69;98.14
75022;SHT31;63583;49.976;20.182;2024-03-02T07:01:35;5.74;98.37
75022;SHT31;63583;49.976;20.182;2024-03-02T07:04:01;5.89;98.27
75022;SHT31;63583;49.976;20.182;2024-03-02T07:06:27;5.85;97.78
75022;SHT31;63583;49.976;20.182;2024-03-02T07:08:53;5.99;97.89
75022;SHT31;63583;49.976;20.182;2024-03-02T07:11:19;6.07;97.26
75022;SHT31;63583;49.976;20.182;2024-03-02T07:13:44;6.02;97.01
75022;SHT31;63583;49.976;20.182;2024-03-02T07:16:10;6.06;97.38
75022;SHT31;63583;49.976;20.182;2024-03-02T07:18:36;6.01;97.21
75022;SHT31;63583;49.976;20.182;2024-03-02T07:21:07;5.91;97.92
75022;SHT31;63583;49.976;20.182;2024-03-02T07:23:34;6.06;98.04
75022;SHT31;63583;49.976;20.182;2024-03-02T07:25:59;6.13;97.73
75022;SHT31;63583;49.976;20.182;2024-03-02T07:28:27;6.19;97.43
75022;SHT31;63583;49.976;20.182;2024-03-02T07:31:05;6.36;97.10
75022;SHT31;63583;49.976;20.182;2024-03-02T07:33:31;6.44;96.68
75022;SHT31;63583;49.976;20.182;2024-03-02T07:35:58;6.44;96.43
75022;SHT31;63583;49.976;20.182;2024-03-02T07:38:28;6.51;96.10
75022;SHT31;63583;49.976;20.182;2024-03-02T07:40:55;6.51;96.12
75022;SHT31;63583;49.976;20.182;2024-03-02T07:43:21;6.63;95.76
75022;SHT31;63583;49.976;20.182;2024-03-02T07:45:48;6.63;95.45
75022;SHT31;63583;49.976;20.182;2024-03-02T07:48:14;6.68;95.40
75022;SHT31;63583;49.976;20.182;2024-03-02T07:50:43;6.74;95.43
75022;SHT31;63583;49.976;20.182;2024-03-02T07:53:10;6.70;95.44
75022;SHT31;63583;49.976;20.182;2024-03-02T07:55:36;6.72;95.58
75022;SHT31;63583;49.976;20.182;2024-03-02T07:58:01;6.84;95.46
75022;SHT31;63583;49.976;20.182;2024-03-02T08:00:28;6.96;94.41
75022;SHT31;63583;49.976;20.182;2024-03-02T08:02:54;6.95;94.22
75022;SHT31;63583;49.976;20.182;2024-03-02T08:05:22;6.92;94.41
75022;SHT31;63583;49.976;20.182;2024-03-02T08:07:48;6.77;94.67
75022;SHT31;63583;49.976;20.182;2024-03-02T08:10:18;6.92;95.20
75022;SHT31;63583;49.976;20.182;2024-03-02T08:12:44;6.87;95.06
75022;SHT31;63583;49.976;20.182;2024-03-02T08:15:09;6.74;94.94
75022;SHT31;63583;49.976;20.182;2024-03-02T08:17:35;6.74;95.24
75022;SHT31;63583;49.976;20.182;2024-03-02T08:20:01;6.85;95.55
75022;SHT31;63583;49.976;20.182;2024-03-02T08:22:28;7.05;94.95
75022;SHT31;63583;49.976;20.182;2024-03-02T08:24:54;7.03;95.16
75022;SHT31;63583;49.976;20.182;2024-03-02T08:27:20;6.85;95.57
75022;SHT31;63583;49.976;20.182;2024-03-02T08:29:46;6.87;95.57
75022;SHT31;63583;49.976;20.182;2024-03-02T08:32:12;6.85;95.43
75022;SHT31;63583;49.976;20.182;2024-03-02T08:34:39;6.93;95.75
75022;SHT31;63583;49.976;20.182;2024-03-02T08:37:05;6.98;95.36
75022;SHT31;63583;49.976;20.182;2024-03-02T08:39:31;6.99;95.55
75022;SHT31;63583;49.976;20.182;2024-03-02T08:41:56;6.96;95.32
75022;SHT31;63583;49.976;20.182;2024-03-02T08:44:22;7.00;95.25
75022;SHT31;63583;49.976;20.182;2024-03-02T08:46:48;6.98;94.96
75022;SHT31;63583;49.976;20.182;2024-03-02T08:49:14;7.05;95.51
75022;SHT31;63583;49.976;20.182;2024-03-02T08:51:40;7.16;94.94
75022;SHT31;63583;49.976;20.182;2024-03-02T08:54:07;7.16;94.91
75022;SHT31;63583;49.976;20.182;2024-03-02T08:56:34;7.26;94.16
75022;SHT31;63583;49.976;20.182;2024-03-02T08:59:01;7.38;93.58
75022;SHT31;63583;49.976;20.182;2024-03-02T09:01:27;7.33;93.07
75022;SHT31;63583;49.976;20.182;2024-03-02T09:03:55;7.26;93.47
75022;SHT31;63583;49.976;20.182;2024-03-02T09:06:21;7.37;93.41
75022;SHT31;63583;49.976;20.182;2024-03-02T09:08:47;7.40;93.12
75022;SHT31;63583;49.976;20.182;2024-03-02T09:11:15;7.29;93.59
75022;SHT31;63583;49.976;20.182;2024-03-02T09:13:41;7.27;93.68
75022;SHT31;63583;49.976;20.182;2024-03-02T09:16:09;7.13;94.62
75022;SHT31;63583;49.976;20.182;2024-03-02T09:18:36;7.13;95.07
75022;SHT31;63583;49.976;20.182;2024-03-02T09:21:03;6.99;95.17
75022;SHT31;63583;49.976;20.182;2024-03-02T09:23:30;6.96;95.41
75022;SHT31;63583;49.976;20.182;2024-03-02T09:25:56;7.08;96.29
75022;SHT31;63583;49.976;20.182;2024-03-02T09:28:22;7.13;96.42
75022;SHT31;63583;49.976;20.182;2024-03-02T09:30:48;6.91;95.34
75022;SHT31;63583;49.976;20.182;2024-03-02T09:33:14;7.00;96.24
75022;SHT31;63583;49.976;20.182;2024-03-02T09:35:40;6.99;95.60
75022;SHT31;63583;49.976;20.182;2024-03-02T09:38:06;7.06;95.45
75022;SHT31;63583;49.976;20.182;2024-03-02T09:40:32;7.26;95.30
75022;SHT31;63583;49.976;20.182;2024-03-02T09:42:58;7.30;94.97
75022;SHT31;63583;49.976;20.182;2024-03-02T09:45:24;7.42;94.88
75022;SHT31;63583;49.976;20.182;2024-03-02T09:47:51;7.33;94.41
75022;SHT31;63583;49.976;20.182;2024-03-02T09:50:16;7.46;95.25
75022;SHT31;63583;49.976;20.182;2024-03-02T09:52:43;7.54;94.14
75022;SHT31;63583;49.976;20.182;2024-03-02T09:55:09;7.61;94.53
75022;SHT31;63583;49.976;20.182;2024-03-02T09:57:35;7.79;94.51
75022;SHT31;63583;49.976;20.182;2024-03-02T10:00:01;7.95;94.08
75022;SHT31;63583;49.976;20.182;2024-03-02T10:02:27;8.09;93.72
75022;SHT31;63583;49.976;20.182;2024-03-02T10:04:52;8.19;93.10
75022;SHT31;63583;49.976;20.182;2024-03-02T10:07:18;8.15;91.89
75022;SHT31;63583;49.976;20.182;2024-03-02T10:09:46;8.21;92.70
75022;SHT31;63583;49.976;20.182;2024-03-02T10:12:14;8.37;92.15
75022;SHT31;63583;49.976;20.182;2024-03-02T10:14:41;8.50;91.37
75022;SHT31;63583;49.976;20.182;2024-03-02T10:17:09;8.54;91.24
75022;SHT31;63583;49.976;20.182;2024-03-02T10:19:35;8.60;90.88
75022;SHT31;63583;49.976;20.182;2024-03-02T10:22:04;8.74;91.12
75022;SHT31;63583;49.976;20.182;2024-03-02T10:24:40;8.80;90.77
75022;SHT31;63583;49.976;20.182;2024-03-02T10:27:09;8.82;90.66
75022;SHT31;63583;49.976;20.182;2024-03-02T10:29:39;8.78;90.70
75022;SHT31;63583;49.976;20.182;2024-03-02T10:32:10;8.93;90.74
75022;SHT31;63583;49.976;20.182;2024-03-02T10:34:43;8.75;90.64
75022;SHT31;63583;49.976;20.182;2024-03-02T10:37:13;8.81;91.96
75022;SHT31;63583;49.976;20.182;2024-03-02T10:39:40;8.87;91.21
75022;SHT31;63583;49.976;20.182;2024-03-02T10:42:07;8.78;90.95
75022;SHT31;63583;49.976;20.182;2024-03-02T10:44:33;8.87;91.81
75022;SHT31;63583;49.976;20.182;2024-03-02T10:47:03;8.77;91.28
75022;SHT31;63583;49.976;20.182;2024-03-02T10:49:30;8.88;91.03
75022;SHT31;63583;49.976;20.182;2024-03-02T10:52:00;9.11;91.73
75022;SHT31;63583;49.976;20.182;2024-03-02T10:54:26;9.25;91.11
75022;SHT31;63583;49.976;20.182;2024-03-02T10:56:58;9.19;90.07
75022;SHT31;63583;49.976;20.182;2024-03-02T10:59:27;9.29;91.14
75022;SHT31;63583;49.976;20.182;2024-03-02T11:01:58;9.53;89.50
75022;SHT31;63583;49.976;20.182;2024-03-02T11:04:25;9.46;89.60
75022;SHT31;63583;49.976;20.182;2024-03-02T11:06:56;9.43;88.80
75022;SHT31;63583;49.976;20.182;2024-03-02T11:09:25;9.53;88.99
75022;SHT31;63583;49.976;20.182;2024-03-02T11:14:42;9.60;88.83
75022;SHT31;63583;49.976;20.182;2024-03-02T11:17:13;9.33;90.73
75022;SHT31;63583;49.976;20.182;2024-03-02T11:19:41;9.53;90.08
75022;SHT31;63583;49.976;20.182;2024-03-02T11:22:08;9.69;89.50
75022;SHT31;63583;49.976;20.182;2024-03-02T11:24:34;9.53;89.15
75022;SHT31;63583;49.976;20.182;2024-03-02T11:27:02;9.47;90.12
75022;SHT31;63583;49.976;20.182;2024-03-02T11:32:05;9.64;89.80
75022;SHT31;63583;49.976;20.182;2024-03-02T11:34:33;9.77;89.69
75022;SHT31;63583;49.976;20.182;2024-03-02T11:37:03;9.57;89.46
75022;SHT31;63583;49.976;20.182;2024-03-02T11:39:30;9.80;89.65
75022;SHT31;63583;49.976;20.182;2024-03-02T11:41:57;9.80;88.27
75022;SHT31;63583;49.976;20.182;2024-03-02T11:44:25;9.97;89.46
75022;SHT31;63583;49.976;20.182;2024-03-02T11:47:01;10.14;88.43
75022;SHT31;63583;49.976;20.182;2024-03-02T11:52:05;10.31;87.78
75022;SHT31;63583;49.976;20.182;2024-03-02T11:54:39;10.32;88.53
75022;SHT31;63583;49.976;20.182;2024-03-02T11:57:25;10.24;88.09
75022;SHT31;63583;49.976;20.182;2024-03-02T11:59:53;10.41;88.06
75022;SHT31;63583;49.976;20.182;2024-03-02T12:02:21;10.42;87.33
75022;SHT31;63583;49.976;20.182;2024-03-02T12:04:49;10.74;87.28
75022;SHT31;63583;49.976;20.182;2024-03-02T12:07:19;10.96;86.80
75022;SHT31;63583;49.976;20.182;2024-03-02T12:10:09;11.17;85.67
75022;SHT31;63583;49.976;20.182;2024-03-02T12:12:34;11.20;85.36
75022;SHT31;63583;49.976;20.182;2024-03-02T12:15:00;11.38;85.53
75022;SHT31;63583;49.976;20.182;2024-03-02T12:17:30;11.51;83.40
75022;SHT31;63583;49.976;20.182;2024-03-02T12:19:55;11.55;83.88
75022;SHT31;63583;49.976;20.182;2024-03-02T12:22:21;11.69;83.42
75022;SHT31;63583;49.976;20.182;2024-03-02T12:24:47;11.76;82.87
75022;SHT31;63583;49.976;20.182;2024-03-02T12:27:14;11.97;82.97
75022;SHT31;63583;49.976;20.182;2024-03-02T12:29:40;12.12;81.57
75022;SHT31;63583;49.976;20.182;2024-03-02T12:32:07;11.89;82.85
75022;SHT31;63583;49.976;20.182;2024-03-02T12:34:33;11.91;82.63
75022;SHT31;63583;49.976;20.182;2024-03-02T12:36:59;12.01;83.20
75022;SHT31;63583;49.976;20.182;2024-03-02T12:39:25;12.07;83.02
75022;SHT31;63583;49.976;20.182;2024-03-02T12:41:51;12.10;82.77
75022;SHT31;63583;49.976;20.182;2024-03-02T12:44:17;12.13;81.68
75022;SHT31;63583;49.976;20.182;2024-03-02T12:46:44;12.34;81.37
75022;SHT31;63583;49.976;20.182;2024-03-02T12:49:11;12.18;81.89
75022;SHT31;63583;49.976;20.182;2024-03-02T12:51:42;12.14;82.01
75022;SHT31;63583;49.976;20.182;2024-03-02T12:54:11;12.34;81.99
75022;SHT31;63583;49.976;20.182;2024-03-02T12:56:37;12.56;80.33
75022;SHT31;63583;49.976;20.182;2024-03-02T12:59:04;12.48;80.60
75022;SHT31;63583;49.976;20.182;2024-03-02T13:01:30;12.65;79.42
75022;SHT31;63583;49.976;20.182;2024-03-02T13:03:57;12.63;79.62
75022;SHT31;63583;49.976;20.182;2024-03-02T13:06:24;12.66;79.37
75022;SHT31;63583;49.976;20.182;2024-03-02T13:08:52;12.66;79.68
75022;SHT31;63583;49.976;20.182;2024-03-02T13:11:18;12.62;79.81
75022;SHT31;63583;49.976;20.182;2024-03-02T13:13:44;12.72;79.44
75022;SHT31;63583;49.976;20.182;2024-03-02T13:16:11;12.42;81.35
75022;SHT31;63583;49.976;20.182;2024-03-02T13:18:38;12.48;81.75
75022;SHT31;63583;49.976;20.182;2024-03-02T13:21:05;12.61;80.82
75022;SHT31;63583;49.976;20.182;2024-03-02T13:23:30;12.54;80.72
75022;SHT31;63583;49.976;20.182;2024-03-02T13:25:57;12.52;81.01
75022;SHT31;63583;49.976;20.182;2024-03-02T13:28:24;12.49;81.49
75022;SHT31;63583;49.976;20.182;2024-03-02T13:30:50;12.42;81.70
75022;SHT31;63583;49.976;20.182;2024-03-02T13:33:16;12.54;81.52
75022;SHT31;63583;49.976;20.182;2024-03-02T13:35:51;12.58;81.43
75022;SHT31;63583;49.976;20.182;2024-03-02T13:38:19;12.66;81.02
75022;SHT31;63583;49.976;20.182;2024-03-02T13:40:45;12.52;80.63
75022;SHT31;63583;49.976;20.182;2024-03-02T13:43:11;12.56;80.49
75022;SHT31;63583;49.976;20.182;2024-03-02T13:45:38;12.45;80.49
75022;SHT31;63583;49.976;20.182;2024-03-02T13:48:04;12.45;80.83
75022;SHT31;63583;49.976;20.182;2024-03-02T13:50:30;12.48;80.51
75022;SHT31;63583;49.976;20.182;2024-03-02T13:52:56;12.56;80.42
75022;SHT31;63583;49.976;20.182;2024-03-02T13:55:22;12.52;81.15
75022;SHT31;63583;49.976;20.182;2024-03-02T13:57:48;12.31;80.73
75022;SHT31;63583;49.976;20.182;2024-03-02T14:00:18;12.25;81.19
75022;SHT31;63583;49.976;20.182;2024-03-02T14:02:45;12.35;80.48
75022;SHT31;63583;49.976;20.182;2024-03-02T14:05:11;12.54;80.21
75022;SHT31;63583;49.976;20.182;2024-03-02T14:07:37;12.23;82.93
75022;SHT31;63583;49.976;20.182;2024-03-02T14:10:04;12.23;82.70
75022;SHT31;63583;49.976;20.182;2024-03-02T14:12:30;12.25;82.23
75022;SHT31;63583;49.976;20.182;2024-03-02T14:14:56;12.25;82.28
75022;SHT31;63583;49.976;20.182;2024-03-02T14:17:24;12.20;81.74
75022;SHT31;63583;49.976;20.182;2024-03-02T14:19:51;12.03;83.34
75022;SHT31;63583;49.976;20.182;2024-03-02T14:22:19;12.24;82.94
75022;SHT31;63583;49.976;20.182;2024-03-02T14:24:45;12.10;82.95
75022;SHT31;63583;49.976;20.182;2024-03-02T14:27:12;11.96;83.37
75022;SHT31;63583;49.976;20.182;2024-03-02T14:29:40;12.07;82.74
75022;SHT31;63583;49.976;20.182;2024-03-02T14:32:06;12.03;83.64
75022;SHT31;63583;49.976;20.182;2024-03-02T14:34:33;12.08;82.47
75022;SHT31;63583;49.976;20.182;2024-03-02T14:36:59;11.97;82.98
75022;SHT31;63583;49.976;20.182;2024-03-02T14:39:26;11.87;83.16
75022;SHT31;63583;49.976;20.182;2024-03-02T14:41:51;11.70;83.66
75022;SHT31;63583;49.976;20.182;2024-03-02T14:44:17;11.82;83.49
75022;SHT31;63583;49.976;20.182;2024-03-02T14:46:46;11.83;83.32
75022;SHT31;63583;49.976;20.182;2024-03-02T14:49:12;11.75;83.54
75022;SHT31;63583;49.976;20.182;2024-03-02T14:51:38;11.82;83.65
75022;SHT31;63583;49.976;20.182;2024-03-02T14:54:04;11.86;83.22
75022;SHT31;63583;49.976;20.182;2024-03-02T14:56:30;11.83;83.18
75022;SHT31;63583;49.976;20.182;2024-03-02T14:58:56;11.80;83.65
75022;SHT31;63583;49.976;20.182;2024-03-02T15:01:22;11.82;83.70
75022;SHT31;63583;49.976;20.182;2024-03-02T15:03:50;11.86;83.52
75022;SHT31;63583;49.976;20.182;2024-03-02T15:06:15;11.85;83.46
75022;SHT31;63583;49.976;20.182;2024-03-02T15:08:41;11.72;83.87
75022;SHT31;63583;49.976;20.182;2024-03-02T15:11:08;11.70;83.85
75022;SHT31;63583;49.976;20.182;2024-03-02T15:13:34;11.75;83.28
75022;SHT31;63583;49.976;20.182;2024-03-02T15:16:00;11.75;83.39
75022;SHT31;63583;49.976;20.182;2024-03-02T15:18:26;11.52;84.48
75022;SHT31;63583;49.976;20.182;2024-03-02T15:20:53;11.51;84.67
75022;SHT31;63583;49.976;20.182;2024-03-02T15:23:19;11.55;84.29
75022;SHT31;63583;49.976;20.182;2024-03-02T15:25:44;11.45;84.54
75022;SHT31;63583;49.976;20.182;2024-03-02T15:28:10;11.43;84.62
75022;SHT31;63583;49.976;20.182;2024-03-02T15:30:36;11.54;84.63
75022;SHT31;63583;49.976;20.182;2024-03-02T15:33:02;11.43;84.61
75022;SHT31;63583;49.976;20.182;2024-03-02T15:35:28;11.39;84.71
75022;SHT31;63583;49.976;20.182;2024-03-02T15:37:57;11.38;84.87
75022;SHT31;63583;49.976;20.182;2024-03-02T15:40:25;11.38;84.82